Time;durP1;ratioP1;P1;durP2;ratioP2;P2;SDS_P1;SDS_P2;PMS_P1;PMS_P2;Temp;Humidity;BMP_temperature;BMP_pressure;BME280_temperature;BME280_humidity;BME280_pressure;Samples;Min_cycle;Max_cycle;Signal;HPM_P1;HPM_P2
2024/01/05 00:00:48;;;;;;;;;;;;;;;;;;5005486;28;19951;-71
2024/01/05 00:03:14;;;;;;;;;;;;;;;;;;5005542;28;19929;-71
2024/01/05 00:05:42;;;;;;;;;;;;;;;;;;5005573;28;20338;-71
2024/01/05 00:08:07;;;;;;;;;;;;;;;;;;5004414;28;20775;-72
2024/01/05 00:10:32;;;;;;;;;;;;;;;;;;5005818;28;20691;-71
2024/01/05 00:12:57;;;;;;;;;;;;;;;;;;5005456;28;20575;-71
2024/01/05 00:15:22;;;;;;;;;;;;;;;;;;5005832;28;19935;-71
2024/01/05 00:17:47;;;;;;;;;;;;;;;;;;5003628;28;19996;-71
2024/01/05 00:20:12;;;;;;;;;;;;;;;;;;4997911;28;20337;-71
2024/01/05 00:22:37;;;;;;;;;;;;;;;;;;4995077;28;20380;-71
2024/01/05 00:25:03;;;;;;;;;;;;;;;;;;5002625;28;20027;-71
2024/01/05 00:27:28;;;;;;;;;;;;;;;;;;5004160;28;20029;-71
2024/01/05 00:29:53;;;;;;;;;;;;;;;;;;5005506;28;19921;-71
2024/01/05 00:32:18;;;;;;;;;;;;;;;;;;5005386;28;19999;-71
2024/01/05 00:34:43;;;;;;;;;;;;;;;;;;5003634;28;19921;-71
2024/01/05 00:37:08;;;;;;;;;;;;;;;;;;5003564;28;20350;-71
2024/01/05 00:39:33;;;;;;;;;;;;;;;;;;5003950;28;20422;-71
2024/01/05 00:42:01;;;;;;;;;;;;;;;;;;5005740;28;19925;-71
2024/01/05 00:44:27;;;;;;;;;;;;;;;;;;5005062;28;19957;-72
2024/01/05 00:46:52;;;;;;;;;;;;;;;;;;5003902;28;20307;-71
2024/01/05 00:49:17;;;;;;;;;;;;;;;;;;5005602;28;19953;-71
2024/01/05 00:51:42;;;;;;;;;;;;;;;;;;5003101;28;19929;-71
2024/01/05 00:54:07;;;;;;;;;;;;;;;;;;5006515;28;19921;-72
2024/01/05 00:56:32;;;;;;;;;;;;;;;;;;5007588;28;19948;-72
2024/01/05 00:58:57;;;;;;;;;;;;;;;;;;5008217;28;20445;-71
2024/01/05 01:01:22;;;;;;;;;;;;;;;;;;5007433;28;19921;-71
2024/01/05 01:03:47;;;;;;;;;;;;;;;;;;5007958;28;19952;-71
2024/01/05 01:06:12;;;;;;;;;;;;;;;;;;5005420;28;19921;-71
2024/01/05 01:08:38;;;;;;;;;;;;;;;;;;5008140;28;19936;-71
2024/01/05 01:11:03;;;;;;;;;;;;;;;;;;5012230;28;19965;-71
2024/01/05 01:13:28;;;;;;;;;;;;;;;;;;5005038;28;20020;-71
2024/01/05 01:15:53;;;;;;;;;;;;;;;;;;5011651;28;20017;-71
2024/01/05 01:18:19;;;;;;;;;;;;;;;;;;5009509;28;20003;-72
2024/01/05 01:20:44;;;;;;;;;;;;;;;;;;5011876;28;19921;-71
2024/01/05 01:23:09;;;;;;;;;;;;;;;;;;5010345;28;19925;-71
2024/01/05 01:25:34;;;;;;;;;;;;;;;;;;5011778;28;19929;-71
2024/01/05 01:27:59;;;;;;;;;;;;;;;;;;5011748;28;19965;-71
2024/01/05 01:30:24;;;;;;;;;;;;;;;;;;5010163;28;19945;-72
2024/01/05 01:32:49;;;;;;;;;;;;;;;;;;5011001;28;19927;-71
2024/01/05 01:35:14;;;;;;;;;;;;;;;;;;5010798;28;19933;-71
2024/01/05 01:37:40;;;;;;;;;;;;;;;;;;5010968;28;19925;-71
2024/01/05 01:40:05;;;;;;;;;;;;;;;;;;5012037;28;19928;-74
2024/01/05 01:42:30;;;;;;;;;;;;;;;;;;5010188;28;19929;-71
2024/01/05 01:44:55;;;;;;;;;;;;;;;;;;5012215;28;19926;-71
2024/01/05 01:47:20;;;;;;;;;;;;;;;;;;5012561;28;20013;-71
2024/01/05 01:49:45;;;;;;;;;;;;;;;;;;5010728;28;19925;-71
2024/01/05 01:52:10;;;;;;;;;;;;;;;;;;5011373;28;19930;-72
2024/01/05 01:54:36;;;;;;;;;;;;;;;;;;5028140;28;19922;-71
2024/01/05 01:57:02;;;;;;;;;;;;;;;;;;5012667;28;20378;-71
2024/01/05 01:59:27;;;;;;;;;;;;;;;;;;5013581;28;20503;-70
2024/01/05 02:01:52;;;;;;;;;;;;;;;;;;5013353;28;19917;-71
2024/01/05 02:04:18;;;;;;;;;;;;;;;;;;5012565;28;19917;-71
2024/01/05 02:06:43;;;;;;;;;;;;;;;;;;5012586;28;20297;-71
2024/01/05 02:09:08;;;;;;;;;;;;;;;;;;5012718;28;19922;-71
2024/01/05 02:11:33;;;;;;;;;;;;;;;;;;5012985;28;19921;-71
2024/01/05 02:13:59;;;;;;;;;;;;;;;;;;5012788;28;19921;-71
2024/01/05 02:16:24;;;;;;;;;;;;;;;;;;5012275;28;24035;-71
2024/01/05 02:18:49;;;;;;;;;;;;;;;;;;5027777;28;19928;-72
2024/01/05 02:21:14;;;;;;;;;;;;;;;;;;5011413;28;19937;-72
2024/01/05 02:23:39;;;;;;;;;;;;;;;;;;5027224;28;19948;-71
2024/01/05 02:26:04;;;;;;;;;;;;;;;;;;5012098;28;20294;-71
2024/01/05 02:28:29;;;;;;;;;;;;;;;;;;5012148;28;19925;-71
2024/01/05 02:30:55;;;;;;;;;;;;;;;;;;5012450;28;19965;-71
2024/01/05 02:33:20;;;;;;;;;;;;;;;;;;5027632;28;19922;-71
2024/01/05 02:35:45;;;;;;;;;;;;;;;;;;5011953;28;20390;-71
2024/01/05 02:38:10;;;;;;;;;;;;;;;;;;5011549;28;20418;-72
2024/01/05 02:40:35;;;;;;;;;;;;;;;;;;5012903;28;19917;-71
2024/01/05 02:43:00;;;;;;;;;;;;;;;;;;5012667;28;19924;-71
2024/01/05 02:45:25;;;;;;;;;;;;;;;;;;5012694;28;19968;-72
2024/01/05 02:47:51;;;;;;;;;;;;;;;;;;5012130;28;19921;-72
2024/01/05 02:50:16;;;;;;;;;;;;;;;;;;5012396;28;19924;-72
2024/01/05 02:52:41;;;;;;;;;;;;;;;;;;5011569;28;19928;-72
2024/01/05 02:55:06;;;;;;;;;;;;;;;;;;5012336;28;19922;-74
2024/01/05 02:57:31;;;;;;;;;;;;;;;;;;5010671;28;19923;-72
2024/01/05 02:59:56;;;;;;;;;;;;;;;;;;5011526;28;19922;-72
2024/01/05 03:02:21;;;;;;;;;;;;;;;;;;5011514;28;20402;-71
2024/01/05 03:04:47;;;;;;;;;;;;;;;;;;5011459;28;20047;-70
2024/01/05 03:07:12;;;;;;;;;;;;;;;;;;5010874;28;19921;-70
2024/01/05 03:09:37;;;;;;;;;;;;;;;;;;5011091;28;19929;-70
2024/01/05 03:12:02;;;;;;;;;;;;;;;;;;5011454;28;19917;-71
2024/01/05 03:14:27;;;;;;;;;;;;;;;;;;5011150;28;19929;-70
2024/01/05 03:16:52;;;;;;;;;;;;;;;;;;5010671;28;20390;-70
2024/01/05 03:19:17;;;;;;;;;;;;;;;;;;5026453;28;19922;-70
2024/01/05 03:21:42;;;;;;;;;;;;;;;;;;5026381;28;19917;-70
2024/01/05 03:24:07;;;;;;;;;;;;;;;;;;5010846;28;19918;-72
2024/01/05 03:26:33;;;;;;;;;;;;;;;;;;5011437;28;20004;-72
2024/01/05 03:28:58;;;;;;;;;;;;;;;;;;5010794;28;20512;-71
2024/01/05 03:31:25;;;;;;;;;;;;;;;;;;5010579;28;19922;-71
2024/01/05 03:33:50;;;;;;;;;;;;;;;;;;5011339;28;19925;-72
2024/01/05 03:36:15;;;;;;;;;;;;;;;;;;5025160;28;19929;-72
2024/01/05 03:38:41;;;;;;;;;;;;;;;;;;5011276;28;19917;-71
2024/01/05 03:41:07;;;;;;;;;;;;;;;;;;5025825;28;19944;-71
2024/01/05 03:43:32;;;;;;;;;;;;;;;;;;5009900;28;19922;-71
2024/01/05 03:45:57;;;;;;;;;;;;;;;;;;5011154;28;19921;-72
2024/01/05 03:48:22;;;;;;;;;;;;;;;;;;5009941;28;19924;-73
2024/01/05 03:50:47;;;;;;;;;;;;;;;;;;5026042;28;20387;-72
2024/01/05 03:53:12;;;;;;;;;;;;;;;;;;5025747;28;19933;-72
2024/01/05 03:55:37;;;;;;;;;;;;;;;;;;5011153;28;20342;-72
2024/01/05 03:58:02;;;;;;;;;;;;;;;;;;5010176;28;19929;-72
2024/01/05 04:00:28;;;;;;;;;;;;;;;;;;5011682;28;19921;-72
2024/01/05 04:02:53;;;;;;;;;;;;;;;;;;5010924;28;19921;-72
2024/01/05 04:05:18;;;;;;;;;;;;;;;;;;5010456;28;19917;-72
2024/01/05 04:07:43;;;;;;;;;;;;;;;;;;5009681;28;19921;-72
2024/01/05 04:10:08;;;;;;;;;;;;;;;;;;5010205;28;20294;-72
2024/01/05 04:12:33;;;;;;;;;;;;;;;;;;5010674;28;19922;-72
2024/01/05 04:14:58;;;;;;;;;;;;;;;;;;5010838;28;19917;-72
2024/01/05 04:17:24;;;;;;;;;;;;;;;;;;5010326;28;19917;-72
2024/01/05 04:19:49;;;;;;;;;;;;;;;;;;5010328;28;20522;-73
2024/01/05 04:22:14;;;;;;;;;;;;;;;;;;5009757;28;19922;-72
2024/01/05 04:24:40;;;;;;;;;;;;;;;;;;5007668;28;19921;-72
2024/01/05 04:27:05;;;;;;;;;;;;;;;;;;5010415;28;19925;-72
2024/01/05 04:29:30;;;;;;;;;;;;;;;;;;5025656;28;20378;-72
2024/01/05 04:31:55;;;;;;;;;;;;;;;;;;5010605;28;20012;-72
2024/01/05 04:34:20;;;;;;;;;;;;;;;;;;5010506;28;20313;-72
2024/01/05 04:36:46;;;;;;;;;;;;;;;;;;5009741;28;19941;-72
2024/01/05 04:39:12;;;;;;;;;;;;;;;;;;5010702;28;19957;-72
2024/01/05 04:41:37;;;;;;;;;;;;;;;;;;5010614;28;19917;-72
2024/01/05 04:44:03;;;;;;;;;;;;;;;;;;5008955;28;19925;-72
2024/01/05 04:46:29;;;;;;;;;;;;;;;;;;5007908;28;20337;-72
2024/01/05 04:48:54;;;;;;;;;;;;;;;;;;5009698;28;19924;-72
2024/01/05 04:51:19;;;;;;;;;;;;;;;;;;5010132;28;19964;-72
2024/01/05 04:53:44;;;;;;;;;;;;;;;;;;5010326;28;19951;-72
2024/01/05 04:56:09;;;;;;;;;;;;;;;;;;5008886;28;19965;-72
2024/01/05 04:58:34;;;;;;;;;;;;;;;;;;5009864;28;19921;-72
2024/01/05 05:00:59;;;;;;;;;;;;;;;;;;5009675;28;20419;-72
2024/01/05 05:03:25;;;;;;;;;;;;;;;;;;5010097;28;20363;-72
2024/01/05 05:05:50;;;;;;;;;;;;;;;;;;5009596;28;19928;-72
2024/01/05 05:08:15;;;;;;;;;;;;;;;;;;5009981;28;19918;-72
2024/01/05 05:10:40;;;;;;;;;;;;;;;;;;5009946;28;19933;-72
2024/01/05 05:13:06;;;;;;;;;;;;;;;;;;5009944;28;19928;-72
2024/01/05 05:15:31;;;;;;;;;;;;;;;;;;5008782;28;19926;-72
2024/01/05 05:17:56;;;;;;;;;;;;;;;;;;5009451;28;20142;-72
2024/01/05 05:20:21;;;;;;;;;;;;;;;;;;5009459;28;20413;-72
2024/01/05 05:22:46;;;;;;;;;;;;;;;;;;5009530;28;19925;-72
2024/01/05 05:25:11;;;;;;;;;;;;;;;;;;5009926;28;19933;-72
2024/01/05 05:27:36;;;;;;;;;;;;;;;;;;5009841;28;19929;-72
2024/01/05 05:30:01;;;;;;;;;;;;;;;;;;5024624;28;19929;-72
2024/01/05 05:32:26;;;;;;;;;;;;;;;;;;5009485;28;20405;-72
2024/01/05 05:34:52;;;;;;;;;;;;;;;;;;5009639;28;19918;-72
2024/01/05 05:37:17;;;;;;;;;;;;;;;;;;5008682;28;19930;-72
2024/01/05 05:39:42;;;;;;;;;;;;;;;;;;5010533;28;19918;-71
2024/01/05 05:42:07;;;;;;;;;;;;;;;;;;5008858;28;20295;-72
2024/01/05 05:44:32;;;;;;;;;;;;;;;;;;5009481;28;19925;-72
2024/01/05 05:46:57;;;;;;;;;;;;;;;;;;5008949;28;19928;-71
2024/01/05 05:49:22;;;;;;;;;;;;;;;;;;5011611;28;19928;-71
2024/01/05 05:51:47;;;;;;;;;;;;;;;;;;5009510;28;20384;-71
2024/01/05 05:54:13;;;;;;;;;;;;;;;;;;5009340;28;19979;-72
2024/01/05 05:56:38;;;;;;;;;;;;;;;;;;5012540;28;19979;-71
2024/01/05 05:59:03;;;;;;;;;;;;;;;;;;5012671;28;19992;-71
2024/01/05 06:01:28;;;;;;;;;;;;;;;;;;5012702;28;20063;-71
2024/01/05 06:03:53;;;;;;;;;;;;;;;;;;5027966;28;19976;-71
2024/01/05 06:06:18;;;;;;;;;;;;;;;;;;5012606;28;19925;-71
2024/01/05 06:08:44;;;;;;;;;;;;;;;;;;5013211;28;19929;-71
2024/01/05 06:11:09;;;;;;;;;;;;;;;;;;5013211;28;19975;-71
2024/01/05 06:13:34;;;;;;;;;;;;;;;;;;5012906;28;20012;-70
2024/01/05 06:15:59;;;;;;;;;;;;;;;;;;5012117;28;19926;-70
2024/01/05 06:18:24;;;;;;;;;;;;;;;;;;5011763;28;19921;-71
2024/01/05 06:20:49;;;;;;;;;;;;;;;;;;5012543;28;19944;-70
2024/01/05 06:23:14;;;;;;;;;;;;;;;;;;5010900;28;20345;-71
2024/01/05 06:25:39;;;;;;;;;;;;;;;;;;5012667;28;19925;-71
2024/01/05 06:28:04;;;;;;;;;;;;;;;;;;5012228;28;19917;-71
2024/01/05 06:30:29;;;;;;;;;;;;;;;;;;5011192;28;19918;-71
2024/01/05 06:32:55;;;;;;;;;;;;;;;;;;5012445;28;19918;-70
2024/01/05 06:35:20;;;;;;;;;;;;;;;;;;5012486;28;19925;-71
2024/01/05 06:37:46;;;;;;;;;;;;;;;;;;5011011;28;19921;-71
2024/01/05 06:40:11;;;;;;;;;;;;;;;;;;5011840;28;20343;-71
2024/01/05 06:42:36;;;;;;;;;;;;;;;;;;5012231;28;19922;-71
2024/01/05 06:45:01;;;;;;;;;;;;;;;;;;5012424;28;19922;-71
2024/01/05 06:47:27;;;;;;;;;;;;;;;;;;5011991;28;19925;-72
2024/01/05 06:49:52;;;;;;;;;;;;;;;;;;5012757;28;19921;-71
2024/01/05 06:52:17;;;;;;;;;;;;;;;;;;5011111;28;19925;-71
2024/01/05 06:54:42;;;;;;;;;;;;;;;;;;5011226;28;19952;-71
2024/01/05 06:57:07;;;;;;;;;;;;;;;;;;5011235;28;20371;-71
2024/01/05 06:59:35;;;;;;;;;;;;;;;;;;5012159;28;19933;-71
2024/01/05 07:02:00;;;;;;;;;;;;;;;;;;5011789;28;20000;-71
2024/01/05 07:04:25;;;;;;;;;;;;;;;;;;5009941;28;20024;-71
2024/01/05 07:06:51;;;;;;;;;;;;;;;;;;5010793;28;20402;-71
2024/01/05 07:09:16;;;;;;;;;;;;;;;;;;5011720;28;19921;-71
2024/01/05 07:11:41;;;;;;;;;;;;;;;;;;5011836;28;20351;-71
2024/01/05 07:14:06;;;;;;;;;;;;;;;;;;5011065;28;20031;-72
2024/01/05 07:16:31;;;;;;;;;;;;;;;;;;5011581;28;19990;-71
2024/01/05 07:18:56;;;;;;;;;;;;;;;;;;5012613;28;20375;-70
2024/01/05 07:21:21;;;;;;;;;;;;;;;;;;5012688;28;19918;-71
2024/01/05 07:23:46;;;;;;;;;;;;;;;;;;5012370;28;19917;-72
2024/01/05 07:26:12;;;;;;;;;;;;;;;;;;5011485;28;19917;-71
2024/01/05 07:28:37;;;;;;;;;;;;;;;;;;5012089;28;19917;-71
2024/01/05 07:31:02;;;;;;;;;;;;;;;;;;5011846;28;20303;-71
2024/01/05 07:33:29;;;;;;;;;;;;;;;;;;5011867;28;19924;-72
2024/01/05 07:35:54;;;;;;;;;;;;;;;;;;5026356;28;19922;-71
2024/01/05 07:38:19;;;;;;;;;;;;;;;;;;5010788;28;19924;-72
2024/01/05 07:40:45;;;;;;;;;;;;;;;;;;5011347;28;19917;-72
2024/01/05 07:43:12;;;;;;;;;;;;;;;;;;5011198;28;20492;-71
2024/01/05 07:45:37;;;;;;;;;;;;;;;;;;5010817;28;20286;-71
2024/01/05 07:48:03;;;;;;;;;;;;;;;;;;5010482;28;20342;-71
2024/01/05 07:50:28;;;;;;;;;;;;;;;;;;5010440;28;19918;-71
2024/01/05 07:52:53;;;;;;;;;;;;;;;;;;5009761;28;19927;-71
2024/01/05 07:55:19;;;;;;;;;;;;;;;;;;5011169;28;20007;-71
2024/01/05 07:57:44;;;;;;;;;;;;;;;;;;5012480;28;19929;-71
2024/01/05 08:00:09;;;;;;;;;;;;;;;;;;5011774;28;19945;-71
2024/01/05 08:02:34;;;;;;;;;;;;;;;;;;5010787;28;19917;-71
2024/01/05 08:05:00;;;;;;;;;;;;;;;;;;5010202;28;19921;-71
2024/01/05 08:07:25;;;;;;;;;;;;;;;;;;5010561;28;19917;-71
2024/01/05 08:09:52;;;;;;;;;;;;;;;;;;5011106;28;19929;-72
2024/01/05 08:12:17;;;;;;;;;;;;;;;;;;5010080;28;19917;-71
2024/01/05 08:14:43;;;;;;;;;;;;;;;;;;5010161;28;19921;-71
2024/01/05 08:17:08;;;;;;;;;;;;;;;;;;5010366;28;19921;-71
2024/01/05 08:19:33;;;;;;;;;;;;;;;;;;5009756;28;19940;-71
2024/01/05 08:21:58;;;;;;;;;;;;;;;;;;5010598;28;20282;-71
2024/01/05 08:24:25;;;;;;;;;;;;;;;;;;5009711;28;19924;-70
2024/01/05 08:26:50;;;;;;;;;;;;;;;;;;5007916;28;19918;-71
2024/01/05 08:29:15;;;;;;;;;;;;;;;;;;5009350;28;20047;-71
2024/01/05 08:31:41;;;;;;;;;;;;;;;;;;5010423;28;19992;-71
2024/01/05 08:34:06;;;;;;;;;;;;;;;;;;5009262;28;20374;-71
2024/01/05 08:36:31;;;;;;;;;;;;;;;;;;5010055;28;19925;-71
2024/01/05 08:38:56;;;;;;;;;;;;;;;;;;5009723;28;19982;-72
2024/01/05 08:41:22;;;;;;;;;;;;;;;;;;5010585;28;20387;-73
2024/01/05 08:43:47;;;;;;;;;;;;;;;;;;5010392;28;19924;-71
2024/01/05 08:46:12;;;;;;;;;;;;;;;;;;5009354;28;20437;-72
2024/01/05 08:48:37;;;;;;;;;;;;;;;;;;5010321;28;19966;-72
2024/01/05 08:51:02;;;;;;;;;;;;;;;;;;5010169;28;19917;-72
2024/01/05 08:53:27;;;;;;;;;;;;;;;;;;5010490;28;19918;-71
2024/01/05 08:55:52;;;;;;;;;;;;;;;;;;5010793;28;20466;-71
2024/01/05 08:58:17;;;;;;;;;;;;;;;;;;5010506;28;19952;-72
2024/01/05 09:00:43;;;;;;;;;;;;;;;;;;5011841;28;19957;-72
2024/01/05 09:03:08;;;;;;;;;;;;;;;;;;5025048;28;19972;-71
2024/01/05 09:05:33;;;;;;;;;;;;;;;;;;5025258;28;20152;-71
2024/01/05 09:07:58;;;;;;;;;;;;;;;;;;5010501;28;19923;-71
2024/01/05 09:10:23;;;;;;;;;;;;;;;;;;5009904;28;20008;-72
2024/01/05 09:12:48;;;;;;;;;;;;;;;;;;5015273;28;19967;-72
2024/01/05 09:15:15;;;;;;;;;;;;;;;;;;5025383;28;19925;-71
2024/01/05 09:17:40;;;;;;;;;;;;;;;;;;5010185;28;19918;-72
2024/01/05 09:20:06;;;;;;;;;;;;;;;;;;5009741;28;19924;-72
2024/01/05 09:22:32;;;;;;;;;;;;;;;;;;5011142;28;19940;-72
2024/01/05 09:24:57;;;;;;;;;;;;;;;;;;5009903;28;19972;-73
2024/01/05 09:27:22;;;;;;;;;;;;;;;;;;5010106;28;20395;-73
2024/01/05 09:29:47;;;;;;;;;;;;;;;;;;5014286;28;19928;-72
2024/01/05 09:32:12;;;;;;;;;;;;;;;;;;5014718;28;19964;-72
2024/01/05 09:34:37;;;;;;;;;;;;;;;;;;5029520;28;20374;-72
2024/01/05 09:37:02;;;;;;;;;;;;;;;;;;5013503;28;19932;-74
2024/01/05 09:39:28;;;;;;;;;;;;;;;;;;5013640;28;19924;-72
2024/01/05 09:41:53;;;;;;;;;;;;;;;;;;5013397;28;19917;-74
2024/01/05 09:44:18;;;;;;;;;;;;;;;;;;5006680;28;19985;-73
2024/01/05 09:46:43;;;;;;;;;;;;;;;;;;5013446;28;19918;-73
2024/01/05 09:49:08;;;;;;;;;;;;;;;;;;5012320;28;20547;-70
2024/01/05 09:51:34;;;;;;;;;;;;;;;;;;5013705;28;19976;-72
2024/01/05 09:53:59;;;;;;;;;;;;;;;;;;5028413;28;19967;-72
2024/01/05 09:56:25;;;;;;;;;;;;;;;;;;5011983;28;20138;-72
2024/01/05 09:58:50;;;;;;;;;;;;;;;;;;5013357;28;19983;-72
2024/01/05 10:01:15;;;;;;;;;;;;;;;;;;5021291;28;19926;-72
2024/01/05 10:03:40;;;;;;;;;;;;;;;;;;5013279;28;19970;-72
2024/01/05 10:06:05;;;;;;;;;;;;;;;;;;5013174;28;19921;-73
2024/01/05 10:08:31;;;;;;;;;;;;;;;;;;5029832;28;19921;-73
2024/01/05 10:10:58;;;;;;;;;;;;;;;;;;5028912;28;19921;-73
2024/01/05 10:13:23;;;;;;;;;;;;;;;;;;5012964;28;20311;-72
2024/01/05 10:15:49;;;;;;;;;;;;;;;;;;5012700;28;19971;-72
2024/01/05 10:18:14;;;;;;;;;;;;;;;;;;5011011;28;19921;-72
2024/01/05 10:20:41;;;;;;;;;;;;;;;;;;5027817;28;19921;-72
2024/01/05 10:23:06;;;;;;;;;;;;;;;;;;5012637;28;19929;-72
2024/01/05 10:25:31;;;;;;;;;;;;;;;;;;5012174;28;19928;-72
2024/01/05 10:27:56;;;;;;;;;;;;;;;;;;5012843;28;19918;-72
2024/01/05 10:30:21;;;;;;;;;;;;;;;;;;5010464;28;20028;-72
2024/01/05 10:32:46;;;;;;;;;;;;;;;;;;5012182;28;20337;-73
2024/01/05 10:35:12;;;;;;;;;;;;;;;;;;5011040;28;20020;-73
2024/01/05 10:37:37;;;;;;;;;;;;;;;;;;5011848;28;20287;-73
2024/01/05 10:40:04;;;;;;;;;;;;;;;;;;5011558;28;19922;-74
2024/01/05 10:42:29;;;;;;;;;;;;;;;;;;5009609;28;20048;-73
2024/01/05 10:44:54;;;;;;;;;;;;;;;;;;5011188;28;20012;-73
2024/01/05 10:47:20;;;;;;;;;;;;;;;;;;5011936;28;19925;-73
2024/01/05 10:49:48;;;;;;;;;;;;;;;;;;5012759;28;20008;-72
2024/01/05 10:52:14;;;;;;;;;;;;;;;;;;5010953;28;20434;-73
2024/01/05 10:54:39;;;;;;;;;;;;;;;;;;5013471;28;19948;-72
2024/01/05 10:57:04;;;;;;;;;;;;;;;;;;5012351;28;19973;-72
2024/01/05 10:59:29;;;;;;;;;;;;;;;;;;5007486;28;20306;-72
2024/01/05 11:01:54;;;;;;;;;;;;;;;;;;5006154;28;19921;-72
2024/01/05 11:04:21;;;;;;;;;;;;;;;;;;5007402;28;19926;-72
2024/01/05 11:06:46;;;;;;;;;;;;;;;;;;5009688;28;19925;-72
2024/01/05 11:09:11;;;;;;;;;;;;;;;;;;5008792;28;19983;-72
2024/01/05 11:11:36;;;;;;;;;;;;;;;;;;5026752;28;19927;-72
2024/01/05 11:14:01;;;;;;;;;;;;;;;;;;5009423;28;20322;-73
2024/01/05 11:16:26;;;;;;;;;;;;;;;;;;5010350;28;19933;-72
2024/01/05 11:18:52;;;;;;;;;;;;;;;;;;5010295;28;19921;-72
2024/01/05 11:21:17;;;;;;;;;;;;;;;;;;5011801;28;19925;-72
2024/01/05 11:23:42;;;;;;;;;;;;;;;;;;5011691;28;19922;-72
2024/01/05 11:26:08;;;;;;;;;;;;;;;;;;5010183;28;20309;-73
2024/01/05 11:28:36;;;;;;;;;;;;;;;;;;5011584;28;19922;-72
2024/01/05 11:31:01;;;;;;;;;;;;;;;;;;5011092;28;19974;-72
2024/01/05 11:33:26;;;;;;;;;;;;;;;;;;5011140;28;20024;-72
2024/01/05 11:35:52;;;;;;;;;;;;;;;;;;5010942;28;20349;-72
2024/01/05 11:38:17;;;;;;;;;;;;;;;;;;5009251;28;19921;-72
2024/01/05 11:40:42;;;;;;;;;;;;;;;;;;5011890;28;19925;-72
2024/01/05 11:43:07;;;;;;;;;;;;;;;;;;5011609;28;19922;-72
2024/01/05 11:45:33;;;;;;;;;;;;;;;;;;5010072;28;19922;-71
2024/01/05 11:47:58;;;;;;;;;;;;;;;;;;5010037;28;20000;-71
2024/01/05 11:50:23;;;;;;;;;;;;;;;;;;5008226;28;19928;-72
2024/01/05 11:52:48;;;;;;;;;;;;;;;;;;5010670;28;20289;-72
2024/01/05 11:55:13;;;;;;;;;;;;;;;;;;5010564;28;19925;-71
2024/01/05 11:57:39;;;;;;;;;;;;;;;;;;5012848;28;19933;-72
2024/01/05 12:00:04;;;;;;;;;;;;;;;;;;5009394;28;20424;-72
2024/01/05 12:02:29;;;;;;;;;;;;;;;;;;5008190;28;20326;-72
2024/01/05 12:04:54;;;;;;;;;;;;;;;;;;5009902;28;20394;-71
2024/01/05 12:07:19;;;;;;;;;;;;;;;;;;5009428;28;19934;-71
2024/01/05 12:09:45;;;;;;;;;;;;;;;;;;5008751;28;19922;-71
2024/01/05 12:12:10;;;;;;;;;;;;;;;;;;5009815;28;19930;-72
2024/01/05 12:14:37;;;;;;;;;;;;;;;;;;5008826;28;19921;-71
2024/01/05 12:17:02;;;;;;;;;;;;;;;;;;5024061;28;19925;-72
2024/01/05 12:19:27;;;;;;;;;;;;;;;;;;5007430;28;19932;-72
2024/01/05 12:21:52;;;;;;;;;;;;;;;;;;5009602;28;19921;-72
2024/01/05 12:24:17;;;;;;;;;;;;;;;;;;5008673;28;19937;-72
2024/01/05 12:26:42;;;;;;;;;;;;;;;;;;5009376;28;19993;-68
2024/01/05 12:29:08;;;;;;;;;;;;;;;;;;5010202;28;19921;-68
2024/01/05 12:31:36;;;;;;;;;;;;;;;;;;5009769;28;19936;-69
2024/01/05 12:34:02;;;;;;;;;;;;;;;;;;5010685;28;20487;-69
2024/01/05 12:36:31;;;;;;;;;;;;;;;;;;5009460;28;19941;-69
2024/01/05 12:38:56;;;;;;;;;;;;;;;;;;5010491;28;19921;-69
2024/01/05 12:41:21;;;;;;;;;;;;;;;;;;5011681;28;19925;-67
2024/01/05 12:43:46;;;;;;;;;;;;;;;;;;5010209;28;19940;-67
2024/01/05 12:46:11;;;;;;;;;;;;;;;;;;5009651;28;20484;-68
2024/01/05 12:48:36;;;;;;;;;;;;;;;;;;5010058;28;20708;-67
2024/01/05 12:51:02;;;;;;;;;;;;;;;;;;5010322;28;20452;-68
2024/01/05 12:53:27;;;;;;;;;;;;;;;;;;5010268;28;19924;-67
2024/01/05 12:55:52;;;;;;;;;;;;;;;;;;5010295;28;19975;-67
2024/01/05 12:58:17;;;;;;;;;;;;;;;;;;5008026;28;20004;-68
2024/01/05 13:00:43;;;;;;;;;;;;;;;;;;5010170;28;19971;-67
2024/01/05 13:03:08;;;;;;;;;;;;;;;;;;5010097;28;20276;-67
2024/01/05 13:05:34;;;;;;;;;;;;;;;;;;5015305;28;20290;-68
2024/01/05 13:07:59;;;;;;;;;;;;;;;;;;5017023;28;19928;-68
2024/01/05 13:10:24;;;;;;;;;;;;;;;;;;5013314;28;19917;-68
2024/01/05 13:12:50;;;;;;;;;;;;;;;;;;5016862;28;19967;-68
2024/01/05 13:15:15;;;;;;;;;;;;;;;;;;5016972;28;19918;-68
2024/01/05 13:17:40;;;;;;;;;;;;;;;;;;5015520;28;19929;-68
2024/01/05 13:20:05;;;;;;;;;;;;;;;;;;5016174;28;19918;-68
2024/01/05 13:22:30;;;;;;;;;;;;;;;;;;5016952;28;20386;-68
2024/01/05 13:24:55;;;;;;;;;;;;;;;;;;5016122;28;19924;-68
2024/01/05 13:27:20;;;;;;;;;;;;;;;;;;5016077;28;19945;-68
2024/01/05 13:29:49;;;;;;;;;;;;;;;;;;5016213;28;19917;-68
2024/01/05 13:32:14;;;;;;;;;;;;;;;;;;5031224;28;19945;-68
2024/01/05 13:34:39;;;;;;;;;;;;;;;;;;5016382;28;22336;-68
2024/01/05 13:37:05;;;;;;;;;;;;;;;;;;5016607;28;20012;-68
2024/01/05 13:39:30;;;;;;;;;;;;;;;;;;5016215;28;19917;-68
2024/01/05 13:41:55;;;;;;;;;;;;;;;;;;5016780;28;19918;-68
2024/01/05 13:44:22;;;;;;;;;;;;;;;;;;5014216;28;19917;-68
2024/01/05 13:46:47;;;;;;;;;;;;;;;;;;5015782;28;19918;-68
2024/01/05 13:49:12;;;;;;;;;;;;;;;;;;5022748;28;20008;-68
2024/01/05 13:51:37;;;;;;;;;;;;;;;;;;5015893;28;19921;-68
2024/01/05 13:54:02;;;;;;;;;;;;;;;;;;5016229;28;19918;-69
2024/01/05 13:56:27;;;;;;;;;;;;;;;;;;5015834;28;19937;-69
2024/01/05 13:58:53;;;;;;;;;;;;;;;;;;5017252;28;20338;-68
2024/01/05 14:01:19;;;;;;;;;;;;;;;;;;5017001;28;19921;-68
2024/01/05 14:03:44;;;;;;;;;;;;;;;;;;5016723;28;20233;-68
2024/01/05 14:06:09;;;;;;;;;;;;;;;;;;5015904;28;19922;-68
2024/01/05 14:08:34;;;;;;;;;;;;;;;;;;5016226;28;19952;-68
2024/01/05 14:10:59;;;;;;;;;;;;;;;;;;5017596;28;20378;-68
2024/01/05 14:13:24;;;;;;;;;;;;;;;;;;5015854;28;20362;-68
2024/01/05 14:15:49;;;;;;;;;;;;;;;;;;5014570;28;20330;-68
2024/01/05 14:18:14;;;;;;;;;;;;;;;;;;5012898;28;19976;-68
2024/01/05 14:20:40;;;;;;;;;;;;;;;;;;5013662;28;19917;-69
2024/01/05 14:23:08;;;;;;;;;;;;;;;;;;5014189;28;19917;-68
2024/01/05 14:25:33;;;;;;;;;;;;;;;;;;5012726;28;19963;-68
2024/01/05 14:27:58;;;;;;;;;;;;;;;;;;5011564;28;20337;-68
2024/01/05 14:30:24;;;;;;;;;;;;;;;;;;5012553;28;19921;-68
2024/01/05 14:32:49;;;;;;;;;;;;;;;;;;5013087;28;20299;-68
2024/01/05 14:35:14;;;;;;;;;;;;;;;;;;5012420;28;19925;-68
2024/01/05 14:37:39;;;;;;;;;;;;;;;;;;5012107;28;19925;-69
2024/01/05 14:40:07;;;;;;;;;;;;;;;;;;5012668;28;19925;-72
2024/01/05 14:42:32;;;;;;;;;;;;;;;;;;5012668;28;20359;-68
2024/01/05 14:44:57;;;;;;;;;;;;;;;;;;5012525;28;19925;-68
2024/01/05 14:47:22;;;;;;;;;;;;;;;;;;5012367;28;19967;-67
2024/01/05 14:49:48;;;;;;;;;;;;;;;;;;5012206;28;20345;-68
2024/01/05 14:52:14;;;;;;;;;;;;;;;;;;5011787;28;19922;-68
2024/01/05 14:54:39;;;;;;;;;;;;;;;;;;5012021;28;20004;-68
2024/01/05 14:57:04;;;;;;;;;;;;;;;;;;5012253;28;19928;-68
2024/01/05 14:59:29;;;;;;;;;;;;;;;;;;5011990;28;19921;-68
2024/01/05 15:01:57;;;;;;;;;;;;;;;;;;5010563;28;19922;-68
2024/01/05 15:04:22;;;;;;;;;;;;;;;;;;5011642;28;19918;-68
2024/01/05 15:06:47;;;;;;;;;;;;;;;;;;5007724;28;19917;-68
2024/01/05 15:09:13;;;;;;;;;;;;;;;;;;5012242;28;20273;-68
2024/01/05 15:11:39;;;;;;;;;;;;;;;;;;5010318;28;19975;-67
2024/01/05 15:14:04;;;;;;;;;;;;;;;;;;5008676;28;19991;-67
2024/01/05 15:16:29;;;;;;;;;;;;;;;;;;5009821;28;19934;-68
2024/01/05 15:18:54;;;;;;;;;;;;;;;;;;5011467;28;20475;-69
2024/01/05 15:21:19;;;;;;;;;;;;;;;;;;5010460;28;19928;-70
2024/01/05 15:23:45;;;;;;;;;;;;;;;;;;5009809;28;19921;-69
2024/01/05 15:26:10;;;;;;;;;;;;;;;;;;5010568;28;19933;-71
2024/01/05 15:28:35;;;;;;;;;;;;;;;;;;5009803;28;19933;-73
2024/01/05 15:31:00;;;;;;;;;;;;;;;;;;5010503;28;19967;-73
2024/01/05 15:33:25;;;;;;;;;;;;;;;;;;5010888;28;19976;-73
2024/01/05 15:35:50;;;;;;;;;;;;;;;;;;5010259;28;20013;-73
2024/01/05 15:38:15;;;;;;;;;;;;;;;;;;5010643;28;19921;-73
2024/01/05 15:40:40;;;;;;;;;;;;;;;;;;5010264;28;19971;-73
2024/01/05 15:43:06;;;;;;;;;;;;;;;;;;5012971;28;20494;-73
2024/01/05 15:45:31;;;;;;;;;;;;;;;;;;5009726;28;19921;-73
2024/01/05 15:47:56;;;;;;;;;;;;;;;;;;5010711;28;19927;-73
2024/01/05 15:50:21;;;;;;;;;;;;;;;;;;5009855;28;19930;-73
2024/01/05 15:52:46;;;;;;;;;;;;;;;;;;5010314;28;19928;-73
2024/01/05 15:55:12;;;;;;;;;;;;;;;;;;5010751;28;19921;-73
2024/01/05 15:57:37;;;;;;;;;;;;;;;;;;5009232;28;20012;-73
2024/01/05 16:00:03;;;;;;;;;;;;;;;;;;5010329;28;19929;-73
2024/01/05 16:02:28;;;;;;;;;;;;;;;;;;5009893;28;19937;-73
2024/01/05 16:04:53;;;;;;;;;;;;;;;;;;5010072;28;19928;-72
2024/01/05 16:07:18;;;;;;;;;;;;;;;;;;5009811;28;19973;-72
2024/01/05 16:09:43;;;;;;;;;;;;;;;;;;5009410;28;20616;-72
2024/01/05 16:12:09;;;;;;;;;;;;;;;;;;5004587;28;19925;-73
2024/01/05 16:14:34;;;;;;;;;;;;;;;;;;5009386;28;20283;-72
2024/01/05 16:16:59;;;;;;;;;;;;;;;;;;5008800;28;19929;-72
2024/01/05 16:19:24;;;;;;;;;;;;;;;;;;5010009;28;19957;-72
2024/01/05 16:21:49;;;;;;;;;;;;;;;;;;5009585;28;20059;-72
2024/01/05 16:24:14;;;;;;;;;;;;;;;;;;5009556;28;19918;-73
2024/01/05 16:26:40;;;;;;;;;;;;;;;;;;5009180;28;19926;-72
2024/01/05 16:29:05;;;;;;;;;;;;;;;;;;5009262;28;20325;-72
2024/01/05 16:31:30;;;;;;;;;;;;;;;;;;5009500;28;19952;-72